Time;durP1;ratioP1;P1;durP2;ratioP2;P2;SDS_P1;SDS_P2;PMS_P1;PMS_P2;Temp;Humidity;BMP_temperature;BMP_pressure;BME280_temperature;BME280_humidity;BME280_pressure;Samples;Min_cycle;Max_cycle;Signal;HPM_P1;HPM_P2
2021/09/21 00:01:30;;;;;;;7.97;7.18;;;;;;;;;;5127504;28;20048;-63
2021/09/21 00:04:16;;;;;;;8.77;6.75;;;;;;;;;;5130467;28;20048;-63
2021/09/21 00:07:01;;;;;;;9.30;7.50;;;;;;;;;;5129572;28;20103;-62
2021/09/21 00:09:47;;;;;;;8.32;7.18;;;;;;;;;;5120728;28;20047;-62
2021/09/21 00:12:32;;;;;;;8.75;7.47;;;;;;;;;;5115898;28;20051;-61
2021/09/21 00:15:17;;;;;;;10.77;7.78;;;;;;;;;;5127241;28;20051;-62
2021/09/21 00:18:03;;;;;;;9.98;8.57;;;;;;;;;;5128654;28;20051;-63
2021/09/21 00:20:48;;;;;;;11.15;8.25;;;;;;;;;;5130599;28;20051;-62
2021/09/21 00:23:33;;;;;;;7.82;6.72;;;;;;;;;;5097478;28;20574;-63
2021/09/21 00:26:19;;;;;;;7.43;6.70;;;;;;;;;;5115374;28;20052;-63
2021/09/21 00:29:04;;;;;;;7.82;7.00;;;;;;;;;;5128996;28;20055;-64
2021/09/21 00:31:58;;;;;;;10.70;7.07;;;;;;;;;;5106782;28;20434;-61
2021/09/21 00:34:44;;;;;;;8.45;7.53;;;;;;;;;;5114973;28;20047;-61
2021/09/21 00:37:29;;;;;;;9.25;7.00;;;;;;;;;;5115256;28;20048;-62
2021/09/21 00:40:14;;;;;;;10.57;7.18;;;;;;;;;;5114998;28;20501;-62
2021/09/21 00:43:03;;;;;;;8.82;7.07;;;;;;;;;;5115500;28;20126;-62
2021/09/21 00:45:48;;;;;;;8.50;7.60;;;;;;;;;;5129388;28;20103;-62
2021/09/21 00:48:34;;;;;;;9.32;6.97;;;;;;;;;;5128728;28;20062;-63
2021/09/21 00:51:21;;;;;;;8.60;7.75;;;;;;;;;;5098804;28;20055;-63
2021/09/21 00:54:06;;;;;;;11.70;8.25;;;;;;;;;;5110466;28;20058;-62
2021/09/21 00:56:51;;;;;;;10.15;8.43;;;;;;;;;;5089712;28;20051;-61
2021/09/21 00:59:36;;;;;;;10.82;8.55;;;;;;;;;;5114671;28;20405;-62
2021/09/21 01:02:21;;;;;;;12.35;9.30;;;;;;;;;;5114819;28;20122;-62
2021/09/21 01:05:07;;;;;;;8.95;8.00;;;;;;;;;;5114461;28;20043;-61
2021/09/21 01:07:52;;;;;;;11.98;8.93;;;;;;;;;;5114594;28;20055;-62
2021/09/21 01:10:37;;;;;;;9.30;8.25;;;;;;;;;;5114669;28;20056;-62
2021/09/21 01:13:23;;;;;;;9.55;8.60;;;;;;;;;;5114559;28;20051;-62
2021/09/21 01:16:08;;;;;;;10.40;7.93;;;;;;;;;;5127233;28;20043;-62
2021/09/21 01:18:53;;;;;;;9.18;8.18;;;;;;;;;;5128489;28;20052;-63
2021/09/21 01:21:39;;;;;;;9.38;7.85;;;;;;;;;;5127087;28;20386;-63
2021/09/21 01:24:25;;;;;;;8.88;7.97;;;;;;;;;;5126992;28;20053;-62
2021/09/21 01:27:10;;;;;;;11.60;8.57;;;;;;;;;;5109644;28;20555;-62
2021/09/21 01:29:55;;;;;;;10.48;8.35;;;;;;;;;;5114061;28;20057;-62
2021/09/21 01:32:40;;;;;;;12.73;9.73;;;;;;;;;;5114061;28;20130;-62
2021/09/21 01:35:26;;;;;;;10.52;9.02;;;;;;;;;;5113724;28;20500;-62
2021/09/21 01:38:11;;;;;;;12.55;9.80;;;;;;;;;;5114101;28;20051;-63
2021/09/21 01:40:56;;;;;;;10.65;8.07;;;;;;;;;;5113917;28;20059;-62
2021/09/21 01:43:43;;;;;;;12.40;10.23;;;;;;;;;;5113520;28;20060;-62
2021/09/21 01:46:28;;;;;;;14.68;10.75;;;;;;;;;;5113882;28;20043;-62
2021/09/21 01:49:15;;;;;;;13.10;10.23;;;;;;;;;;5113708;28;20118;-62
2021/09/21 01:52:12;;;;;;;10.15;9.05;;;;;;;;;;5113560;28;20043;-63
2021/09/21 01:55:06;;;;;;;10.55;9.45;;;;;;;;;;5113459;28;20043;-63
2021/09/21 02:00:56;;;;;;;10.38;9.27;;;;;;;;;;5114044;28;20505;-63
2021/09/21 02:03:42;;;;;;;10.60;9.05;;;;;;;;;;5107192;28;20062;-62
2021/09/21 02:06:36;;;;;;;11.50;10.27;;;;;;;;;;5126529;28;20056;-62
2021/09/21 02:09:21;;;;;;;12.77;9.98;;;;;;;;;;5117040;28;20505;-61
2021/09/21 02:12:06;;;;;;;11.15;9.98;;;;;;;;;;5113501;28;20052;-62
2021/09/21 02:14:52;;;;;;;11.65;10.35;;;;;;;;;;5112940;28;20052;-62
2021/09/21 02:17:37;;;;;;;11.55;10.35;;;;;;;;;;5113242;28;20047;-63
2021/09/21 02:20:23;;;;;;;11.02;9.75;;;;;;;;;;5113131;28;20051;-62
2021/09/21 02:23:08;;;;;;;12.80;10.30;;;;;;;;;;5112994;28;20059;-62
2021/09/21 02:25:53;;;;;;;11.50;9.73;;;;;;;;;;5113109;28;20051;-62
2021/09/21 02:28:39;;;;;;;12.88;10.30;;;;;;;;;;5113027;28;20051;-62
2021/09/21 02:31:24;;;;;;;11.82;9.68;;;;;;;;;;5112720;28;20090;-62
2021/09/21 02:34:09;;;;;;;11.43;9.30;;;;;;;;;;5112852;28;20048;-61
2021/09/21 02:36:54;;;;;;;9.85;8.82;;;;;;;;;;5112873;28;20432;-62
2021/09/21 02:39:40;;;;;;;13.05;9.43;;;;;;;;;;5112728;28;20048;-62
2021/09/21 02:42:25;;;;;;;14.10;9.88;;;;;;;;;;5113006;28;20506;-61
2021/09/21 02:45:10;;;;;;;9.27;8.40;;;;;;;;;;5111906;28;20051;-62
2021/09/21 02:47:56;;;;;;;11.52;10.30;;;;;;;;;;5111787;28;20051;-61
2021/09/21 02:50:41;;;;;;;9.65;8.05;;;;;;;;;;5112766;28;20126;-61
2021/09/21 02:53:27;;;;;;;9.80;7.53;;;;;;;;;;5112580;28;20051;-62
2021/09/21 02:56:14;;;;;;;8.07;7.32;;;;;;;;;;5112583;28;20051;-62
2021/09/21 02:59:00;;;;;;;11.60;9.00;;;;;;;;;;5112489;28;20051;-61
2021/09/21 03:01:45;;;;;;;9.70;8.70;;;;;;;;;;5112498;28;20510;-61
2021/09/21 03:04:35;;;;;;;10.00;8.98;;;;;;;;;;5112272;28;20130;-61
2021/09/21 03:07:30;;;;;;;10.00;8.95;;;;;;;;;;5113113;28;20059;-62
2021/09/21 03:10:27;;;;;;;10.27;8.45;;;;;;;;;;5106289;28;20059;-61
2021/09/21 03:19:08;;;;;;;7.72;6.93;;;;;;;;;;5113352;28;20055;-64
2021/09/21 03:21:54;;;;;;;9.35;7.50;;;;;;;;;;5115193;28;20043;-63
2021/09/21 03:24:39;;;;;;;7.93;6.90;;;;;;;;;;5114104;28;20211;-64
2021/09/21 03:27:25;;;;;;;8.80;7.20;;;;;;;;;;5113137;28;20062;-63
2021/09/21 03:30:10;;;;;;;8.80;7.68;;;;;;;;;;5071320;28;20062;-62
2021/09/21 03:32:56;;;;;;;9.40;8.15;;;;;;;;;;5116552;28;20086;-62
2021/09/21 03:35:41;;;;;;;10.25;8.40;;;;;;;;;;5116177;28;20056;-63
2021/09/21 03:38:26;;;;;;;8.43;7.63;;;;;;;;;;5116126;28;20047;-62
2021/09/21 03:41:11;;;;;;;9.68;8.70;;;;;;;;;;5116267;28;20084;-62
2021/09/21 03:43:57;;;;;;;12.00;8.45;;;;;;;;;;5115994;28;20047;-61
2021/09/21 03:46:42;;;;;;;9.25;8.35;;;;;;;;;;5128035;28;20524;-62
2021/09/21 03:49:27;;;;;;;9.45;8.45;;;;;;;;;;5116187;28;20047;-61
2021/09/21 03:52:13;;;;;;;10.25;8.57;;;;;;;;;;5116122;28;20060;-62
2021/09/21 03:54:58;;;;;;;9.45;8.45;;;;;;;;;;5129451;28;20052;-62
2021/09/21 03:57:44;;;;;;;10.20;8.40;;;;;;;;;;5130700;28;20055;-61
2021/09/21 04:00:29;;;;;;;22.45;9.15;;;;;;;;;;5123982;28;20063;-62
2021/09/21 04:03:14;;;;;;;16.65;8.65;;;;;;;;;;5115723;28;20047;-61
2021/09/21 04:06:00;;;;;;;10.82;8.43;;;;;;;;;;5115839;28;20448;-61
2021/09/21 04:08:45;;;;;;;11.30;8.20;;;;;;;;;;5115822;28;20063;-61
2021/09/21 04:11:31;;;;;;;10.43;7.82;;;;;;;;;;5115629;28;20059;-62
2021/09/21 04:14:16;;;;;;;8.13;7.32;;;;;;;;;;5115591;28;20051;-62
2021/09/21 04:17:01;;;;;;;7.15;6.45;;;;;;;;;;5115675;28;20048;-62
2021/09/21 04:19:46;;;;;;;9.00;6.82;;;;;;;;;;5115463;28;20043;-61
2021/09/21 04:22:31;;;;;;;6.93;6.22;;;;;;;;;;5115752;28;20417;-61
2021/09/21 04:25:17;;;;;;;8.00;6.72;;;;;;;;;;5114685;28;20052;-61
2021/09/21 04:28:02;;;;;;;8.05;6.78;;;;;;;;;;5115710;28;20059;-63
2021/09/21 04:30:48;;;;;;;9.32;7.13;;;;;;;;;;5115169;28;20055;-62
2021/09/21 04:33:34;;;;;;;14.95;7.35;;;;;;;;;;5099592;28;20051;-62
2021/09/21 04:36:20;;;;;;;9.82;6.82;;;;;;;;;;5099855;28;20055;-62
2021/09/21 04:39:05;;;;;;;6.57;5.97;;;;;;;;;;5115257;28;20082;-63
2021/09/21 04:41:50;;;;;;;7.53;5.90;;;;;;;;;;5114960;28;20051;-62
2021/09/21 04:44:36;;;;;;;9.60;6.95;;;;;;;;;;5114862;28;20409;-61
2021/09/21 04:47:21;;;;;;;8.40;7.15;;;;;;;;;;5115222;28;20055;-62
2021/09/21 04:50:06;;;;;;;9.60;8.07;;;;;;;;;;5114937;28;20044;-62
2021/09/21 04:52:52;;;;;;;9.02;7.97;;;;;;;;;;5114918;28;20051;-62
2021/09/21 04:55:37;;;;;;;10.80;8.18;;;;;;;;;;5114837;28;20059;-62
2021/09/21 04:58:22;;;;;;;8.52;7.72;;;;;;;;;;5114853;28;20048;-63
2021/09/21 05:01:07;;;;;;;9.55;8.27;;;;;;;;;;5114697;28;20047;-62
2021/09/21 05:03:53;;;;;;;10.50;7.90;;;;;;;;;;5114647;28;20052;-63
2021/09/21 05:06:38;;;;;;;9.40;8.00;;;;;;;;;;5114752;28;20047;-62
2021/09/21 05:09:24;;;;;;;11.13;8.77;;;;;;;;;;5114464;28;20047;-61
2021/09/21 05:12:10;;;;;;;9.98;7.88;;;;;;;;;;5114501;28;20505;-62
2021/09/21 05:14:55;;;;;;;9.02;8.13;;;;;;;;;;5114187;28;20513;-62
2021/09/21 05:17:41;;;;;;;8.93;8.10;;;;;;;;;;5114353;28;20127;-62
2021/09/21 05:20:26;;;;;;;10.90;8.80;;;;;;;;;;5114267;28;20497;-61
2021/09/21 05:23:11;;;;;;;10.18;8.85;;;;;;;;;;5118460;28;20052;-61
2021/09/21 05:25:57;;;;;;;11.52;9.18;;;;;;;;;;5111209;28;20051;-62
2021/09/21 05:28:42;;;;;;;10.15;8.43;;;;;;;;;;5113114;28;20062;-62
2021/09/21 05:31:27;;;;;;;21.30;9.20;;;;;;;;;;5130528;22;20075;-64
2021/09/21 05:34:12;;;;;;;11.73;9.20;;;;;;;;;;5113876;28;20047;-64
2021/09/21 05:36:58;;;;;;;13.65;8.52;;;;;;;;;;5113635;28;20048;-63
2021/09/21 05:39:43;;;;;;;21.45;9.13;;;;;;;;;;5113996;28;20472;-63
2021/09/21 05:42:28;;;;;;;10.90;8.38;;;;;;;;;;5113980;28;20044;-63
2021/09/21 05:45:14;;;;;;;11.48;8.82;;;;;;;;;;5113481;28;20048;-63
2021/09/21 05:47:59;;;;;;;9.57;8.40;;;;;;;;;;5113979;28;20055;-63
2021/09/21 05:50:44;;;;;;;11.45;9.40;;;;;;;;;;5113754;28;20055;-63
2021/09/21 05:53:29;;;;;;;9.88;8.30;;;;;;;;;;5113434;28;20063;-63
2021/09/21 05:56:15;;;;;;;10.90;8.48;;;;;;;;;;5113764;28;20047;-63
2021/09/21 05:59:00;;;;;;;10.65;8.48;;;;;;;;;;5113665;28;20138;-63
2021/09/21 06:01:45;;;;;;;13.07;9.65;;;;;;;;;;5113444;28;20082;-63
2021/09/21 06:04:30;;;;;;;12.63;9.75;;;;;;;;;;5113149;28;20421;-63
2021/09/21 06:07:16;;;;;;;10.43;9.38;;;;;;;;;;5113558;28;20123;-63
2021/09/21 06:10:01;;;;;;;10.68;9.05;;;;;;;;;;5113200;28;20509;-64
2021/09/21 06:12:47;;;;;;;12.43;10.38;;;;;;;;;;5113648;28;20055;-63
2021/09/21 06:15:32;;;;;;;12.18;9.95;;;;;;;;;;5112890;28;20497;-63
2021/09/21 06:18:17;;;;;;;14.52;10.57;;;;;;;;;;5113229;28;20055;-63
2021/09/21 06:21:02;;;;;;;11.48;9.80;;;;;;;;;;5113211;28;20073;-63
2021/09/21 06:23:48;;;;;;;12.38;11.05;;;;;;;;;;5113011;28;20048;-63
2021/09/21 06:26:33;;;;;;;13.82;9.35;;;;;;;;;;5113156;28;20058;-63
2021/09/21 06:29:19;;;;;;;10.90;9.43;;;;;;;;;;5113235;28;20135;-63
2021/09/21 06:32:04;;;;;;;11.63;10.30;;;;;;;;;;5113120;28;20055;-63
2021/09/21 06:34:49;;;;;;;14.02;10.85;;;;;;;;;;5112729;28;20056;-64
2021/09/21 06:37:34;;;;;;;13.70;10.93;;;;;;;;;;5113086;28;20055;-63
2021/09/21 06:40:20;;;;;;;11.18;9.88;;;;;;;;;;5112844;28;20048;-63
2021/09/21 06:43:05;;;;;;;15.43;10.40;;;;;;;;;;5112830;28;20051;-64
2021/09/21 06:45:54;;;;;;;11.23;9.82;;;;;;;;;;5112837;28;20083;-64
2021/09/21 06:48:40;;;;;;;11.88;10.68;;;;;;;;;;5112280;28;20052;-63
2021/09/21 06:51:25;;;;;;;24.58;10.57;;;;;;;;;;5112661;28;20126;-63
2021/09/21 06:54:10;;;;;;;12.77;9.27;;;;;;;;;;5112224;28;20517;-63
2021/09/21 06:56:56;;;;;;;13.95;10.10;;;;;;;;;;5112663;28;20126;-64
2021/09/21 06:59:43;;;;;;;13.63;10.75;;;;;;;;;;5112520;28;20398;-65
2021/09/21 07:02:28;;;;;;;13.63;9.18;;;;;;;;;;5112410;28;20534;-63
2021/09/21 07:05:14;;;;;;;10.10;8.75;;;;;;;;;;5112360;28;20420;-63
2021/09/21 07:07:59;;;;;;;10.32;9.25;;;;;;;;;;5112528;28;20060;-63
2021/09/21 07:10:44;;;;;;;12.20;10.90;;;;;;;;;;5112319;28;20080;-63
2021/09/21 07:13:29;;;;;;;10.90;8.82;;;;;;;;;;5112383;28;20059;-63
2021/09/21 07:16:15;;;;;;;10.95;9.38;;;;;;;;;;5112422;28;20052;-63
2021/09/21 07:19:00;;;;;;;9.75;8.77;;;;;;;;;;5112206;28;20051;-63
2021/09/21 07:21:47;;;;;;;10.60;7.78;;;;;;;;;;5112503;28;20056;-64
2021/09/21 07:24:32;;;;;;;9.40;8.02;;;;;;;;;;5112213;28;20122;-63
2021/09/21 07:27:18;;;;;;;10.52;8.18;;;;;;;;;;5112269;28;20055;-63
2021/09/21 07:30:04;;;;;;;11.13;7.10;;;;;;;;;;5112199;28;20096;-63
2021/09/21 07:32:49;;;;;;;8.70;7.35;;;;;;;;;;5112281;28;20051;-63
2021/09/21 07:35:34;;;;;;;9.50;7.13;;;;;;;;;;5111925;28;20079;-63
2021/09/21 07:38:20;;;;;;;12.43;6.60;;;;;;;;;;5112277;28;20052;-63
2021/09/21 07:41:05;;;;;;;9.63;7.43;;;;;;;;;;5112281;28;20048;-63
2021/09/21 07:43:50;;;;;;;9.02;7.63;;;;;;;;;;5111900;28;20047;-63
2021/09/21 07:46:35;;;;;;;9.07;7.55;;;;;;;;;;5112307;28;20052;-63
2021/09/21 07:49:21;;;;;;;9.75;7.15;;;;;;;;;;5112164;28;20126;-63
2021/09/21 07:52:07;;;;;;;8.40;7.20;;;;;;;;;;5112031;28;20127;-64
2021/09/21 07:54:52;;;;;;;8.25;6.57;;;;;;;;;;5112036;28;20047;-64
2021/09/21 07:57:38;;;;;;;10.85;6.70;;;;;;;;;;5111863;28;20494;-63
2021/09/21 08:00:26;;;;;;;8.80;6.30;;;;;;;;;;5113185;28;20051;-64
2021/09/21 08:03:11;;;;;;;9.80;7.05;;;;;;;;;;5116070;28;20126;-63
2021/09/21 08:05:57;;;;;;;8.07;6.80;;;;;;;;;;5115753;28;20505;-63
2021/09/21 08:08:42;;;;;;;9.18;7.03;;;;;;;;;;5115782;28;20052;-63
2021/09/21 08:11:28;;;;;;;10.80;6.30;;;;;;;;;;5115879;28;20122;-63
2021/09/21 08:14:14;;;;;;;10.88;7.30;;;;;;;;;;5115514;28;20151;-64
2021/09/21 08:16:59;;;;;;;8.80;6.07;;;;;;;;;;5115627;28;20051;-63
2021/09/21 08:19:44;;;;;;;8.70;6.45;;;;;;;;;;5115702;28;20052;-63
2021/09/21 08:22:30;;;;;;;10.77;6.85;;;;;;;;;;5115582;28;20087;-64
2021/09/21 08:25:15;;;;;;;6.68;6.07;;;;;;;;;;5115294;28;20051;-63
2021/09/21 08:28:00;;;;;;;9.35;5.78;;;;;;;;;;5115623;28;20043;-63
2021/09/21 08:30:46;;;;;;;9.85;6.15;;;;;;;;;;5115218;28;20047;-64
2021/09/21 08:33:31;;;;;;;6.63;5.93;;;;;;;;;;5115099;28;20052;-63
2021/09/21 08:36:16;;;;;;;8.88;6.47;;;;;;;;;;5115102;28;20048;-63
2021/09/21 08:39:02;;;;;;;6.00;5.40;;;;;;;;;;5115220;28;20055;-64
2021/09/21 08:41:50;;;;;;;9.13;6.40;;;;;;;;;;5115086;28;20044;-64
2021/09/21 08:44:40;;;;;;;9.95;5.45;;;;;;;;;;5115056;28;20090;-65
2021/09/21 08:47:25;;;;;;;7.15;5.85;;;;;;;;;;5115146;28;20052;-63
2021/09/21 08:50:11;;;;;;;8.60;5.60;;;;;;;;;;5114788;28;20633;-64
2021/09/21 08:52:58;;;;;;;7.38;5.75;;;;;;;;;;5114823;28;20048;-64
2021/09/21 08:55:44;;;;;;;7.65;5.40;;;;;;;;;;5114714;28;20051;-65
2021/09/21 08:58:31;;;;;;;8.95;5.22;;;;;;;;;;5114685;28;20501;-64
2021/09/21 09:01:18;;;;;;;6.70;5.28;;;;;;;;;;5114597;28;20051;-65
2021/09/21 09:04:03;;;;;;;7.93;5.15;;;;;;;;;;5114592;28;20044;-64
2021/09/21 09:06:49;;;;;;;7.18;4.82;;;;;;;;;;5114688;28;20083;-64
2021/09/21 09:09:37;;;;;;;6.93;5.07;;;;;;;;;;5099133;28;20051;-64
2021/09/21 09:12:28;;;;;;;8.63;5.65;;;;;;;;;;5114079;28;20055;-65
2021/09/21 09:15:15;;;;;;;17.83;6.00;;;;;;;;;;5114316;28;20473;-64
2021/09/21 09:18:01;;;;;;;9.30;4.90;;;;;;;;;;5114447;28;20048;-65
2021/09/21 09:20:46;;;;;;;7.18;4.97;;;;;;;;;;5114351;28;20043;-64
2021/09/21 09:23:32;;;;;;;9.57;4.00;;;;;;;;;;5114083;28;20052;-63
2021/09/21 09:26:18;;;;;;;6.90;4.53;;;;;;;;;;5114473;28;20126;-64
2021/09/21 09:29:03;;;;;;;8.80;4.65;;;;;;;;;;5114323;28;20056;-64
2021/09/21 09:31:49;;;;;;;8.85;4.95;;;;;;;;;;5098763;28;20048;-64
2021/09/21 09:34:34;;;;;;;6.97;4.43;;;;;;;;;;5113749;28;20126;-64
2021/09/21 09:37:19;;;;;;;7.10;4.10;;;;;;;;;;5114161;28;20051;-64
2021/09/21 09:40:04;;;;;;;4.80;4.30;;;;;;;;;;5113969;28;20122;-64
2021/09/21 09:42:49;;;;;;;5.97;4.20;;;;;;;;;;5113897;28;20055;-64
2021/09/21 09:45:38;;;;;;;7.50;4.28;;;;;;;;;;5113894;28;20056;-64
2021/09/21 09:48:24;;;;;;;8.60;4.47;;;;;;;;;;5113705;28;20047;-64
2021/09/21 09:51:09;;;;;;;7.32;4.38;;;;;;;;;;5113683;28;20096;-65
2021/09/21 09:53:54;;;;;;;9.70;5.18;;;;;;;;;;5098401;28;20471;-65
2021/09/21 09:56:39;;;;;;;16.77;4.82;;;;;;;;;;5098482;28;20051;-64
2021/09/21 09:59:25;;;;;;;6.15;4.63;;;;;;;;;;5098080;28;20401;-64
2021/09/21 10:02:10;;;;;;;6.55;4.65;;;;;;;;;;5098468;28;20052;-64
2021/09/21 10:04:55;;;;;;;4.50;3.83;;;;;;;;;;5113265;28;20047;-64
2021/09/21 10:07:40;;;;;;;7.68;4.50;;;;;;;;;;5113395;28;20123;-64
2021/09/21 10:10:26;;;;;;;5.63;4.78;;;;;;;;;;5098219;28;20048;-65
2021/09/21 10:13:12;;;;;;;6.40;4.45;;;;;;;;;;5113426;28;20044;-64
2021/09/21 10:15:57;;;;;;;8.02;5.05;;;;;;;;;;5113304;28;20048;-65
2021/09/21 10:18:44;;;;;;;7.93;4.85;;;;;;;;;;5113326;28;20123;-65
2021/09/21 10:21:33;;;;;;;9.15;4.50;;;;;;;;;;5113229;28;20059;-65
2021/09/21 10:24:18;;;;;;;5.93;4.93;;;;;;;;;;5112051;28;20093;-65
2021/09/21 10:27:05;;;;;;;9.07;5.00;;;;;;;;;;5113250;28;20047;-65
2021/09/21 10:30:07;;;;;;;7.10;4.85;;;;;;;;;;5112952;28;20083;-65
2021/09/21 10:32:52;;;;;;;7.90;4.47;;;;;;;;;;5112887;28;20475;-65
2021/09/21 10:35:37;;;;;;;12.68;5.78;;;;;;;;;;5112659;28;20501;-65
2021/09/21 10:38:23;;;;;;;8.60;4.40;;;;;;;;;;5112865;28;20055;-65
2021/09/21 10:41:08;;;;;;;8.63;4.38;;;;;;;;;;5112743;28;20051;-65
2021/09/21 10:44:00;;;;;;;9.50;5.15;;;;;;;;;;5112763;28;20448;-65
2021/09/21 10:46:46;;;;;;;8.20;3.88;;;;;;;;;;5112827;28;20055;-65
2021/09/21 10:49:38;;;;;;;6.50;5.18;;;;;;;;;;5112561;28;20100;-65
2021/09/21 10:52:27;;;;;;;9.10;5.88;;;;;;;;;;5112824;28;20126;-65
2021/09/21 10:55:13;;;;;;;8.85;5.10;;;;;;;;;;5112470;28;20138;-64
2021/09/21 10:58:03;;;;;;;7.32;5.10;;;;;;;;;;5112475;28;20122;-64
2021/09/21 11:00:48;;;;;;;7.75;5.78;;;;;;;;;;5112415;28;20564;-64
2021/09/21 11:03:36;;;;;;;6.50;5.05;;;;;;;;;;5112302;28;20123;-64
2021/09/21 11:06:21;;;;;;;11.25;5.60;;;;;;;;;;5112452;28;20080;-65
2021/09/21 11:09:06;;;;;;;14.90;6.40;;;;;;;;;;5112616;28;20051;-65
2021/09/21 11:11:52;;;;;;;10.63;6.50;;;;;;;;;;5112537;28;20055;-66
2021/09/21 11:14:37;;;;;;;9.80;7.53;;;;;;;;;;5096963;28;20055;-64
2021/09/21 11:17:24;;;;;;;8.10;5.40;;;;;;;;;;5112512;28;20059;-64
2021/09/21 11:20:09;;;;;;;8.35;6.82;;;;;;;;;;5112275;28;20576;-64
2021/09/21 11:22:54;;;;;;;8.18;6.00;;;;;;;;;;5112273;28;20055;-64
2021/09/21 11:25:40;;;;;;;16.88;7.15;;;;;;;;;;5112223;28;20051;-64
2021/09/21 11:28:28;;;;;;;9.25;6.28;;;;;;;;;;5112388;28;20052;-64
2021/09/21 11:31:13;;;;;;;6.88;5.85;;;;;;;;;;5126664;22;20055;-62
2021/09/21 11:33:59;;;;;;;11.00;7.00;;;;;;;;;;5112205;28;20051;-62
2021/09/21 11:36:49;;;;;;;10.73;5.45;;;;;;;;;;5100645;28;20055;-63
2021/09/21 11:39:34;;;;;;;6.60;5.30;;;;;;;;;;5116191;28;20501;-63
2021/09/21 11:42:26;;;;;;;8.15;5.90;;;;;;;;;;5096011;28;20059;-63
2021/09/21 11:45:12;;;;;;;9.27;5.72;;;;;;;;;;5095603;28;20075;-63
2021/09/21 11:47:57;;;;;;;9.02;6.32;;;;;;;;;;5095635;28;20052;-63
2021/09/21 11:50:43;;;;;;;8.70;5.15;;;;;;;;;;5095597;28;20499;-62
2021/09/21 11:53:30;;;;;;;6.35;5.07;;;;;;;;;;5095491;28;20056;-63
2021/09/21 11:56:19;;;;;;;10.30;5.70;;;;;;;;;;5095544;28;20096;-63
2021/09/21 11:59:04;;;;;;;9.30;4.95;;;;;;;;;;5080419;28;20056;-62
2021/09/21 12:01:50;;;;;;;13.85;5.35;;;;;;;;;;5095438;28;20052;-62
2021/09/21 12:04:36;;;;;;;5.10;3.95;;;;;;;;;;5095060;28;20561;-62
2021/09/21 12:07:21;;;;;;;5.93;4.40;;;;;;;;;;5095503;28;20044;-63
2021/09/21 12:10:07;;;;;;;51.75;6.15;;;;;;;;;;5095262;28;20052;-62
2021/09/21 12:12:59;;;;;;;44.22;6.20;;;;;;;;;;5095105;28;20052;-62
2021/09/21 12:15:49;;;;;;;5.20;3.70;;;;;;;;;;5095076;28;20056;-62
2021/09/21 12:18:34;;;;;;;5.53;3.80;;;;;;;;;;5095163;28;20051;-62
2021/09/21 12:21:20;;;;;;;6.00;3.75;;;;;;;;;;5094999;28;20119;-62
2021/09/21 12:24:06;;;;;;;5.13;3.78;;;;;;;;;;5095001;28;20053;-62
2021/09/21 12:26:51;;;;;;;4.57;3.35;;;;;;;;;;5095109;28;20044;-62
2021/09/21 12:29:36;;;;;;;6.07;3.47;;;;;;;;;;5079718;28;20048;-62
2021/09/21 12:32:25;;;;;;;4.32;3.20;;;;;;;;;;5095080;28;20055;-62
2021/09/21 12:35:11;;;;;;;5.18;3.25;;;;;;;;;;5094588;28;20505;-62
2021/09/21 12:38:08;;;;;;;7.05;3.63;;;;;;;;;;5095059;28;20109;-62
2021/09/21 12:40:53;;;;;;;6.60;4.10;;;;;;;;;;5094820;28;20051;-62
2021/09/21 12:43:42;;;;;;;4.75;3.63;;;;;;;;;;5094439;28;20048;-62
2021/09/21 12:46:30;;;;;;;4.75;3.70;;;;;;;;;;5079470;28;20055;-61
2021/09/21 12:49:16;;;;;;;4.75;3.20;;;;;;;;;;5094783;28;20430;-61
2021/09/21 12:52:01;;;;;;;7.75;3.95;;;;;;;;;;5094500;28;20052;-62
2021/09/21 12:54:50;;;;;;;5.93;3.90;;;;;;;;;;5094470;28;20123;-62
2021/09/21 12:57:36;;;;;;;7.72;4.57;;;;;;;;;;5094558;28;20052;-62
2021/09/21 13:00:21;;;;;;;6.43;3.60;;;;;;;;;;5094281;28;20119;-61
2021/09/21 13:03:07;;;;;;;4.85;3.72;;;;;;;;;;5094572;28;20051;-62
2021/09/21 13:05:52;;;;;;;4.90;3.97;;;;;;;;;;5094479;28;20410;-62
2021/09/21 13:08:38;;;;;;;5.53;3.55;;;;;;;;;;5094255;28;20048;-63
2021/09/21 13:11:23;;;;;;;7.85;4.55;;;;;;;;;;5094040;28;20509;-62
2021/09/21 13:14:08;;;;;;;5.85;4.25;;;;;;;;;;5093894;28;20414;-61
2021/09/21 13:16:53;;;;;;;6.30;4.32;;;;;;;;;;5094074;28;20052;-62
2021/09/21 13:19:39;;;;;;;4.80;3.67;;;;;;;;;;5094149;28;20044;-62
2021/09/21 13:22:24;;;;;;;6.25;4.22;;;;;;;;;;5094108;28;20052;-62
2021/09/21 13:25:09;;;;;;;6.50;3.90;;;;;;;;;;5093758;28;20056;-62
2021/09/21 13:27:55;;;;;;;4.30;3.67;;;;;;;;;;5093753;28;20147;-63
2021/09/21 13:30:40;;;;;;;6.10;4.63;;;;;;;;;;5093719;28;20056;-61
2021/09/21 13:33:25;;;;;;;5.93;4.63;;;;;;;;;;5093695;28;20072;-63
2021/09/21 13:36:10;;;;;;;5.75;4.90;;;;;;;;;;5093682;28;20056;-62
2021/09/21 13:38:57;;;;;;;6.03;4.63;;;;;;;;;;5093723;28;20402;-62
2021/09/21 13:41:43;;;;;;;6.90;4.30;;;;;;;;;;5078717;28;20052;-62
2021/09/21 13:44:29;;;;;;;5.95;4.35;;;;;;;;;;5093083;28;20064;-62
2021/09/21 13:47:14;;;;;;;7.40;4.35;;;;;;;;;;5093620;28;20048;-62
2021/09/21 13:50:00;;;;;;;6.80;4.55;;;;;;;;;;5093401;28;20056;-62
2021/09/21 13:52:46;;;;;;;5.95;4.45;;;;;;;;;;5093328;28;20056;-62
2021/09/21 13:55:32;;;;;;;7.90;4.57;;;;;;;;;;5093238;28;20087;-61
2021/09/21 13:58:18;;;;;;;10.48;4.45;;;;;;;;;;5093131;28;20052;-62
2021/09/21 14:01:03;;;;;;;8.20;4.93;;;;;;;;;;5093048;28;20079;-62
2021/09/21 14:03:48;;;;;;;6.88;4.30;;;;;;;;;;5093231;28;20044;-62
2021/09/21 14:06:33;;;;;;;6.95;5.07;;;;;;;;;;5093098;28;20494;-61
2021/09/21 14:09:21;;;;;;;5.55;4.78;;;;;;;;;;5093020;28;20043;-62
2021/09/21 14:12:07;;;;;;;7.85;5.25;;;;;;;;;;5093164;28;20048;-62
2021/09/21 14:14:52;;;;;;;9.73;4.82;;;;;;;;;;5092776;28;20528;-62
2021/09/21 14:17:40;;;;;;;7.95;4.72;;;;;;;;;;5093438;28;20088;-62
2021/09/21 14:20:25;;;;;;;5.75;4.63;;;;;;;;;;5092969;28;20123;-62
2021/09/21 14:23:11;;;;;;;5.72;4.97;;;;;;;;;;5092986;28;20095;-62
2021/09/21 14:25:56;;;;;;;7.13;5.03;;;;;;;;;;5092747;28;20055;-62
2021/09/21 14:28:42;;;;;;;7.13;4.80;;;;;;;;;;5092844;28;20052;-61
2021/09/21 14:31:27;;;;;;;6.55;4.45;;;;;;;;;;5092520;28;20044;-62
2021/09/21 14:34:12;;;;;;;6.72;5.07;;;;;;;;;;5092420;28;20043;-62
2021/09/21 14:36:57;;;;;;;8.30;5.22;;;;;;;;;;5092649;28;20052;-62
2021/09/21 14:39:43;;;;;;;6.70;5.43;;;;;;;;;;5092558;28;20052;-61
2021/09/21 14:42:28;;;;;;;9.68;4.97;;;;;;;;;;5092453;28;20123;-62
2021/09/21 14:45:14;;;;;;;8.07;5.38;;;;;;;;;;5092338;28;20055;-62
2021/09/21 14:47:59;;;;;;;7.28;5.50;;;;;;;;;;5092494;28;20048;-61
2021/09/21 14:50:44;;;;;;;6.70;4.70;;;;;;;;;;5092275;28;20048;-62
2021/09/21 14:53:29;;;;;;;9.38;5.63;;;;;;;;;;5092372;28;20056;-61
2021/09/21 14:56:15;;;;;;;5.72;4.55;;;;;;;;;;5092478;28;20093;-63
2021/09/21 14:59:00;;;;;;;7.03;4.40;;;;;;;;;;5092117;28;20496;-63
2021/09/21 15:01:46;;;;;;;9.95;5.75;;;;;;;;;;5092472;28;20135;-61
2021/09/21 15:04:31;;;;;;;10.27;5.43;;;;;;;;;;5092147;28;20420;-63
2021/09/21 15:07:16;;;;;;;6.28;4.65;;;;;;;;;;5092194;28;20047;-62
2021/09/21 15:10:01;;;;;;;7.95;4.97;;;;;;;;;;5091502;28;20051;-61
2021/09/21 15:12:47;;;;;;;6.82;5.10;;;;;;;;;;5092164;28;20048;-62
2021/09/21 15:15:32;;;;;;;8.93;4.53;;;;;;;;;;5091944;28;20048;-62
2021/09/21 15:18:18;;;;;;;6.95;4.78;;;;;;;;;;5091977;28;20126;-63
2021/09/21 15:21:03;;;;;;;5.65;4.45;;;;;;;;;;5092149;28;20073;-62
2021/09/21 15:23:48;;;;;;;5.25;4.18;;;;;;;;;;5091826;28;20056;-62
2021/09/21 15:26:34;;;;;;;6.43;3.67;;;;;;;;;;5091893;28;20082;-61
2021/09/21 15:29:19;;;;;;;8.82;5.10;;;;;;;;;;5092152;28;20048;-62
2021/09/21 15:32:04;;;;;;;7.15;4.93;;;;;;;;;;5076598;28;20529;-62
2021/09/21 15:34:50;;;;;;;8.07;4.60;;;;;;;;;;5091521;28;20123;-62
2021/09/21 15:37:35;;;;;;;6.30;4.28;;;;;;;;;;5092002;28;20083;-62
2021/09/21 15:40:23;;;;;;;6.30;4.25;;;;;;;;;;5091660;28;20422;-61
2021/09/21 15:43:09;;;;;;;4.43;3.55;;;;;;;;;;5091675;28;20502;-62
2021/09/21 15:45:54;;;;;;;5.97;4.20;;;;;;;;;;5091982;28;20047;-63
2021/09/21 15:48:40;;;;;;;7.30;4.18;;;;;;;;;;5092021;28;20044;-63
2021/09/21 15:51:25;;;;;;;5.97;4.32;;;;;;;;;;5091700;28;20079;-62
2021/09/21 15:54:10;;;;;;;6.90;4.10;;;;;;;;;;5091812;28;20127;-62
2021/09/21 15:56:58;;;;;;;10.13;4.70;;;;;;;;;;5091761;28;20048;-62
2021/09/21 15:59:43;;;;;;;21.60;5.15;;;;;;;;;;5091508;28;20068;-62
2021/09/21 16:02:28;;;;;;;7.90;4.68;;;;;;;;;;5091820;28;20083;-62
2021/09/21 16:05:14;;;;;;;6.45;4.30;;;;;;;;;;5091456;28;20115;-61
2021/09/21 16:07:59;;;;;;;11.65;4.28;;;;;;;;;;5091570;28;20052;-62
2021/09/21 16:10:45;;;;;;;4.55;3.75;;;;;;;;;;5091611;28;20056;-62
2021/09/21 16:13:30;;;;;;;6.32;4.18;;;;;;;;;;5091412;28;20052;-62
2021/09/21 16:16:16;;;;;;;5.55;4.03;;;;;;;;;;5091507;28;20122;-62
2021/09/21 16:19:01;;;;;;;7.05;3.92;;;;;;;;;;5091575;28;20504;-62
2021/09/21 16:21:48;;;;;;;4.72;3.53;;;;;;;;;;5091545;28;20502;-63
2021/09/21 16:24:33;;;;;;;11.00;4.00;;;;;;;;;;5094800;28;20048;-61
2021/09/21 16:27:19;;;;;;;7.07;3.85;;;;;;;;;;5095294;28;20052;-63
2021/09/21 16:30:05;;;;;;;6.22;4.43;;;;;;;;;;5095017;28;20056;-62
2021/09/21 16:32:51;;;;;;;7.68;4.13;;;;;;;;;;5094952;28;20126;-62
2021/09/21 16:35:38;;;;;;;16.92;4.70;;;;;;;;;;5094804;28;20060;-62
2021/09/21 16:38:23;;;;;;;8.13;4.93;;;;;;;;;;5094780;28;20403;-61